Arcola, Missouri
Current Conditions -  °F | °C
As of 6:52 PM on Wednesday 22 Oct 2014 (Local Time) from KSGF Reporting Station
Clear Clear  
Wind Chill: 59°   Ceiling: Unl
Heat Index: 59°   Visibility: 10mi
Dew Point: 47°   Wind: 6mph
Humidity: 64%   Direction: 160°SSE
Pressure: 30.16"   Gusts: NA
Location:  37.55°N, 93.88°W
Report Text: KSGF 222352Z 16005KT 10SM CLR 15/08 A3016 RMK AO2 SLP211 T01500083 10228 20150 53004
Loading
Personal Weather Stations






























Interactive Weather Map
Tropical Storm Tracking
New forecast layout! Learn more

10-Day Weather Forecast

Advertisements
Track Severe Weather on mobile